Hovedside
METAR-TAF:

METAR-TAF

Lufthavner :

Göteborg-Landvetter lufthavn

Göteborg-Landvetter, Sverige

breddegrad: 57-40N, lengdegrad: 012-18E, høyde over havet: 169 m

Gjeldene værobservasjon

Denne rapporten ble laget for 26 minutter siden, klokken 18:20 UTC
Vind 10 kt fra Nordøst
Temperatur 1°C
Luftfuktighet 86%
Trykk 1034 hPa
Sikt 10 km eller mer
ingen skyer under 1500 m og ingen bygeskyer

METAR: ESGG 191820Z 05010KT CAVOK 01/M01 Q1034 R03/09//95

Tid: 19:46 (18:46 UTC)

Varsel

Denne rapporten ble laget for 1 time og 16 minutter siden, klokken 17:30 UTC
Varsel gyldig fra 19. klokken 18 UTC til 20. klokken 18 UTC
Vind 8 kt fra Øst-nordøst
Sikt 10 km eller mer
Brutte skyer i en høyde av 2000 ft
Sannsynlighet 40%
fra 19. klokken 18 UTC til 20. klokken 10 UTC
Brutte skyer i en høyde av 1400 ft

TAF: ESGG 191730Z 1918/2018 06008KT 9999 BKN020 PROB40 1918/2010 BKN014

Værobservasjoner og værvarsel for over 4000 flyplasser (METAR- og TAF-rapporter).

Tilgjengelige stasjoner er representert av de røde og gule prikkene på kartet.

Hold musepekeren over prikken for å se navnet på stasjonen.

Klikk så for å se værobservasjoner og -varsler.

For å forandre kartet kan du klikke på den grønne knappen med svart kryss for å zoome inn, på den grønne knappen med strek for å zoome ut, eller på de grønne pilene for å se tilstøtende kart.


METAR-TAF: